Time;durP1;ratioP1;P1;durP2;ratioP2;P2;SDS_P1;SDS_P2;PMS_P1;PMS_P2;Temp;Humidity;BMP_temperature;BMP_pressure;BME280_temperature;BME280_humidity;BME280_pressure;Samples;Min_cycle;Max_cycle;Signal;HPM_P1;HPM_P2
2021/07/14 00:00:30;;;;;;;10.38;9.57;;;;;;;25.55;59.00;100807.59;6042865;29;20266;-59
2021/07/14 00:03:53;;;;;;;10.25;9.35;;;;;;;25.34;60.00;100805.53;6050844;29;20242;-60
2021/07/14 00:07:14;;;;;;;9.52;8.73;;;;;;;25.49;59.59;100797.41;6046397;29;20613;-61
2021/07/14 00:10:35;;;;;;;9.45;8.75;;;;;;;25.29;60.38;100796.16;6050990;29;20604;-59
2021/07/14 00:14:14;;;;;;;9.57;8.77;;;;;;;25.33;60.14;100795.81;6049978;29;20234;-60
2021/07/14 00:17:50;;;;;;;10.45;9.65;;;;;;;25.41;59.61;100786.44;6049269;29;20611;-60
2021/07/14 00:24:52;;;;;;;9.50;8.70;;;;;;;25.38;59.76;100794.63;6047945;29;20238;-60
2021/07/14 00:28:13;;;;;;;10.38;9.48;;;;;;;25.44;59.91;100794.22;6049727;29;20233;-59
2021/07/14 00:31:34;;;;;;;10.75;10.00;;;;;;;25.49;59.59;100802.72;6044975;29;20241;-60
2021/07/14 00:34:55;;;;;;;10.38;9.48;;;;;;;25.40;59.99;100784.75;6053738;29;20233;-60
2021/07/14 00:38:17;;;;;;;10.48;9.60;;;;;;;25.41;59.81;100778.44;6024482;29;20683;-59
2021/07/14 00:41:38;;;;;;;10.52;9.60;;;;;;;25.37;60.30;100771.63;6049050;29;20234;-59
2021/07/14 00:44:59;;;;;;;10.02;9.07;;;;;;;25.41;59.62;100773.13;6048022;29;20238;-59
2021/07/14 00:48:28;;;;;;;10.68;9.88;;;;;;;25.24;60.48;100759.19;6065314;23;20256;-60
2021/07/14 00:51:51;;;;;;;10.07;9.18;;;;;;;25.12;60.57;100752.88;6104790;28;20239;-60
2021/07/14 00:55:14;;;;;;;9.88;8.98;;;;;;;25.17;60.73;100749.91;6116024;28;20235;-60
2021/07/14 00:58:35;;;;;;;10.45;9.45;;;;;;;25.31;60.01;100752.44;6108486;28;20320;-59
2021/07/14 01:01:55;;;;;;;10.05;9.05;;;;;;;25.19;60.43;100742.66;6118090;28;20705;-60
2021/07/14 01:05:20;;;;;;;11.40;10.40;;;;;;;24.95;61.08;100742.56;6104865;28;20223;-61
2021/07/14 01:08:47;;;;;;;10.00;9.13;;;;;;;24.91;60.94;100744.63;6110075;28;20331;-60
2021/07/14 01:12:13;;;;;;;10.27;9.38;;;;;;;25.02;60.89;100740.34;6107727;28;20661;-60
2021/07/14 01:15:40;;;;;;;11.30;10.40;;;;;;;25.05;60.71;100746.31;6103060;28;20236;-61
2021/07/14 01:19:16;;;;;;;11.57;10.57;;;;;;;25.03;60.82;100742.03;6110236;28;20232;-60
2021/07/14 01:22:56;;;;;;;11.57;10.38;;;;;;;25.21;60.26;100745.22;6112985;28;20239;-60
2021/07/14 01:26:30;;;;;;;10.82;10.05;;;;;;;25.34;59.49;100738.06;6114088;28;20232;-60
2021/07/14 01:29:55;;;;;;;10.45;9.27;;;;;;;25.35;59.28;100742.41;6101932;28;20598;-59
2021/07/14 01:33:19;;;;;;;10.43;9.52;;;;;;;25.22;60.15;100736.22;6111354;28;20256;-60
2021/07/14 01:36:44;;;;;;;10.35;9.52;;;;;;;25.22;60.04;100742.47;6110035;28;20231;-60
2021/07/14 01:40:07;;;;;;;10.73;9.93;;;;;;;25.14;60.29;100739.44;6108029;28;20241;-59
2021/07/14 01:43:35;;;;;;;11.80;10.68;;;;;;;25.13;60.21;100727.09;6106649;28;20224;-60
2021/07/14 01:46:59;;;;;;;10.05;9.20;;;;;;;25.14;59.88;100718.13;6105211;28;20247;-59
2021/07/14 01:50:22;;;;;;;9.98;9.25;;;;;;;25.06;60.14;100720.50;6110631;28;20244;-59
2021/07/14 01:53:45;;;;;;;10.40;9.18;;;;;;;25.07;60.32;100722.22;6113904;28;20232;-59
2021/07/14 01:57:07;;;;;;;10.75;9.80;;;;;;;25.05;60.28;100721.47;6108283;28;20243;-59
2021/07/14 02:00:29;;;;;;;11.43;10.43;;;;;;;24.85;61.04;100718.38;6110454;28;20676;-60
2021/07/14 02:04:30;;;;;;;11.35;10.45;;;;;;;24.74;61.23;100727.16;6113553;28;20240;-60
2021/07/14 02:07:38;;;;;;;10.02;9.32;;;;;;;24.25;62.47;100737.63;6104704;28;20232;-58
2021/07/14 02:11:00;;;;;;;11.55;10.65;;;;;;;24.12;63.00;100727.81;6111877;28;20244;-60
2021/07/14 02:14:26;;;;;;;11.38;10.32;;;;;;;24.59;61.88;100717.56;6111869;28;20646;-61
2021/07/14 02:17:53;;;;;;;11.25;10.15;;;;;;;24.52;61.79;100741.13;6110552;28;20240;-59
2021/07/14 02:21:16;;;;;;;12.18;11.20;;;;;;;23.58;64.82;100741.13;6108078;28;20247;-60
2021/07/14 02:24:37;;;;;;;11.15;10.15;;;;;;;24.33;62.53;100727.31;6114717;28;20224;-59
2021/07/14 02:27:58;;;;;;;12.65;11.35;;;;;;;24.71;61.28;100726.50;6114201;28;20235;-60
2021/07/14 02:31:19;;;;;;;11.73;10.93;;;;;;;24.45;62.04;100741.63;6112587;28;20243;-59
2021/07/14 02:34:40;;;;;;;11.05;10.23;;;;;;;24.42;61.98;100737.31;6108999;28;20274;-59
2021/07/14 02:38:07;;;;;;;9.57;8.77;;;;;;;24.82;60.87;100739.94;6109894;28;20224;-59
2021/07/14 02:41:32;;;;;;;11.65;9.95;;;;;;;24.84;61.09;100716.72;6107305;28;20235;-60
2021/07/14 02:44:54;;;;;;;11.75;10.70;;;;;;;24.89;60.71;100708.38;6108404;28;20239;-59
2021/07/14 02:48:16;;;;;;;12.65;11.55;;;;;;;24.61;61.31;100713.00;6108697;28;20244;-60
2021/07/14 02:51:39;;;;;;;10.88;9.80;;;;;;;24.65;61.25;100710.97;6113457;28;20228;-59
2021/07/14 02:55:02;;;;;;;11.07;10.27;;;;;;;24.53;61.23;100705.53;6109245;28;20236;-60
2021/07/14 02:58:25;;;;;;;12.95;11.63;;;;;;;24.32;61.75;100699.84;6113810;28;20224;-60
2021/07/14 03:01:46;;;;;;;12.38;11.27;;;;;;;24.52;61.41;100693.22;6118848;28;20224;-59
2021/07/14 03:05:08;;;;;;;11.88;10.88;;;;;;;24.51;61.73;100687.97;6105016;28;20534;-60
2021/07/14 03:08:31;;;;;;;11.80;10.80;;;;;;;24.66;60.97;100692.22;6115171;28;20232;-60
2021/07/14 03:11:54;;;;;;;11.98;10.85;;;;;;;24.53;61.25;100686.91;6114543;28;20247;-60
2021/07/14 03:15:15;;;;;;;13.23;12.07;;;;;;;24.20;62.16;100691.88;6108819;28;20522;-60
2021/07/14 03:18:37;;;;;;;12.38;11.38;;;;;;;24.38;61.56;100687.94;6098999;28;21305;-60
2021/07/14 03:21:59;;;;;;;12.48;11.30;;;;;;;24.50;61.53;100697.72;6105553;28;20623;-60
2021/07/14 03:25:21;;;;;;;11.63;10.63;;;;;;;24.39;61.69;100681.66;6110526;28;20236;-60
2021/07/14 03:28:44;;;;;;;11.38;10.50;;;;;;;24.37;61.65;100688.91;6108603;28;20232;-60
2021/07/14 03:32:06;;;;;;;11.27;10.30;;;;;;;24.68;60.55;100690.31;6104564;28;20274;-60
2021/07/14 03:35:27;;;;;;;12.30;11.20;;;;;;;24.59;61.01;100698.94;6120852;28;20232;-58
2021/07/14 03:38:48;;;;;;;15.32;11.55;;;;;;;24.62;60.72;100697.88;6101075;28;20240;-59
2021/07/14 03:42:13;;;;;;;12.07;10.93;;;;;;;24.40;61.65;100707.31;6118753;28;20315;-60
2021/07/14 03:45:37;;;;;;;15.23;13.90;;;;;;;24.16;62.26;100716.00;6103016;28;20239;-60
2021/07/14 03:48:59;;;;;;;12.93;11.65;;;;;;;24.20;62.26;100723.81;6108409;28;20240;-59
2021/07/14 03:52:22;;;;;;;12.20;11.23;;;;;;;24.45;61.03;100726.50;6116197;28;20570;-60
2021/07/14 03:55:43;;;;;;;12.68;11.68;;;;;;;24.46;61.23;100749.47;6111802;28;20330;-61
2021/07/14 03:59:04;;;;;;;11.05;10.23;;;;;;;24.51;61.02;100751.88;6111763;28;20240;-60
2021/07/14 04:02:27;;;;;;;11.20;10.30;;;;;;;24.73;60.36;100749.41;6112403;28;20244;-59
2021/07/14 04:05:49;;;;;;;14.73;13.52;;;;;;;24.52;60.88;100754.44;6115372;28;20228;-60
2021/07/14 04:09:24;;;;;;;13.40;12.27;;;;;;;24.63;60.69;100761.66;6110303;28;20322;-60
2021/07/14 04:12:45;;;;;;;12.45;11.32;;;;;;;24.71;60.43;100759.31;6112549;28;20552;-60
2021/07/14 04:16:06;;;;;;;12.77;11.68;;;;;;;24.69;60.25;100755.06;6113524;28;20235;-59
2021/07/14 04:19:28;;;;;;;13.20;12.20;;;;;;;24.68;60.45;100761.31;6111998;28;20236;-60
2021/07/14 04:22:49;;;;;;;16.35;14.88;;;;;;;24.68;60.16;100756.00;6115235;28;20236;-60
2021/07/14 04:26:10;;;;;;;20.65;18.95;;;;;;;24.72;60.30;100760.19;6112543;28;20267;-60
2021/07/14 04:29:31;;;;;;;15.10;13.90;;;;;;;24.81;60.08;100758.69;6113592;28;20513;-59
2021/07/14 04:32:52;;;;;;;17.33;15.75;;;;;;;24.64;60.65;100771.38;6110341;28;20240;-60
2021/07/14 04:36:14;;;;;;;13.18;12.27;;;;;;;24.46;61.26;100769.91;6114707;28;20224;-61
2021/07/14 04:39:35;;;;;;;13.38;12.25;;;;;;;24.71;60.62;100769.13;6108819;28;20232;-59
2021/07/14 04:42:56;;;;;;;14.82;13.35;;;;;;;24.75;60.56;100763.47;6106203;28;20233;-60
2021/07/14 04:46:17;;;;;;;12.90;11.68;;;;;;;24.81;60.16;100775.50;6111638;28;20236;-59
2021/07/14 04:49:38;;;;;;;13.55;12.35;;;;;;;24.62;61.18;100769.75;6111961;28;20232;-60
2021/07/14 04:53:00;;;;;;;13.05;11.85;;;;;;;24.56;61.45;100755.03;6110342;28;20237;-60
2021/07/14 04:56:21;;;;;;;12.85;11.75;;;;;;;24.68;61.00;100779.97;6110941;28;20244;-60
2021/07/14 04:59:42;;;;;;;13.68;12.52;;;;;;;24.65;61.70;100772.22;6107314;28;20228;-58
2021/07/14 05:03:04;;;;;;;13.13;11.93;;;;;;;24.85;60.83;100774.31;6111645;28;20243;-59
2021/07/14 05:06:25;;;;;;;13.80;12.57;;;;;;;24.71;61.53;100758.47;6113602;28;20240;-59
2021/07/14 05:09:47;;;;;;;15.23;13.77;;;;;;;24.56;62.40;100758.56;6108810;28;20334;-60
2021/07/14 05:13:08;;;;;;;13.07;12.07;;;;;;;24.82;61.78;100758.56;6110598;28;20747;-60
2021/07/14 05:16:29;;;;;;;12.15;11.20;;;;;;;25.08;60.56;100753.22;6110702;28;20690;-60
2021/07/14 05:19:53;;;;;;;14.52;12.95;;;;;;;25.12;60.92;100755.53;6115337;28;20236;-60
2021/07/14 05:23:14;;;;;;;13.25;12.15;;;;;;;25.19;60.43;100755.97;6104730;28;20236;-60
2021/07/14 05:26:36;;;;;;;13.40;12.02;;;;;;;25.22;60.69;100762.88;6111856;28;20318;-60
2021/07/14 05:29:57;;;;;;;12.98;11.77;;;;;;;25.26;60.29;100765.28;6115810;28;20244;-59
2021/07/14 05:33:18;;;;;;;11.90;11.00;;;;;;;25.29;59.99;100759.69;6110475;28;20256;-60
2021/07/14 05:36:39;;;;;;;13.18;11.90;;;;;;;24.99;61.79;100757.41;6113091;28;20295;-61
2021/07/14 05:40:00;;;;;;;14.88;13.68;;;;;;;25.17;61.31;100760.56;6112287;28;20283;-60
2021/07/14 05:43:22;;;;;;;14.98;13.73;;;;;;;25.03;61.58;100756.22;6117899;28;20255;-61
2021/07/14 05:46:43;;;;;;;13.35;12.30;;;;;;;24.92;62.59;100769.44;6113385;28;20229;-60
2021/07/14 05:50:06;;;;;;;11.20;10.32;;;;;;;25.11;61.38;100769.84;6113070;28;20264;-60
2021/07/14 05:53:27;;;;;;;14.73;13.18;;;;;;;25.13;61.77;100764.41;6111864;28;20248;-60
2021/07/14 05:56:48;;;;;;;9.75;8.95;;;;;;;25.22;61.42;100765.53;6107427;28;20235;-60
2021/07/14 06:00:11;;;;;;;14.20;12.77;;;;;;;25.30;61.17;100761.41;6114472;28;20594;-60
2021/07/14 06:03:32;;;;;;;11.18;10.05;;;;;;;25.21;61.37;100751.38;6113211;28;20259;-59
2021/07/14 06:06:53;;;;;;;13.65;12.48;;;;;;;25.33;61.34;100758.50;6112868;28;20736;-60
2021/07/14 06:10:14;;;;;;;14.52;13.30;;;;;;;25.33;61.83;100757.66;6106627;28;20232;-59
2021/07/14 06:13:36;;;;;;;16.23;14.90;;;;;;;25.08;62.13;100750.56;6112794;28;20330;-60
2021/07/14 06:16:58;;;;;;;15.82;14.32;;;;;;;25.09;62.67;100746.94;6111644;28;20598;-60
2021/07/14 06:20:19;;;;;;;15.55;14.23;;;;;;;24.91;63.15;100754.41;6114020;28;20236;-61
2021/07/14 06:23:40;;;;;;;14.52;13.35;;;;;;;24.90;62.89;100748.22;6105372;28;20311;-59
2021/07/14 06:27:02;;;;;;;12.02;10.98;;;;;;;24.81;63.18;100754.19;6115003;28;20322;-58
2021/07/14 06:30:23;;;;;;;19.85;18.17;;;;;;;24.84;63.52;100763.81;6105540;28;20327;-59
2021/07/14 06:33:45;;;;;;;16.80;15.35;;;;;;;24.48;64.88;100784.81;6118425;28;20327;-60
2021/07/14 06:37:06;;;;;;;14.80;13.50;;;;;;;24.59;64.60;100776.13;6110705;28;20623;-61
2021/07/14 06:40:27;;;;;;;16.23;14.70;;;;;;;24.37;65.38;100744.78;6113262;28;20235;-60
2021/07/14 06:43:49;;;;;;;15.75;14.20;;;;;;;24.62;64.84;100728.03;6113595;28;20251;-60
2021/07/14 06:47:10;;;;;;;14.23;12.80;;;;;;;24.72;64.08;100698.94;6111917;28;20247;-59
2021/07/14 06:50:32;;;;;;;18.02;16.42;;;;;;;24.83;63.73;100687.50;6111174;28;20227;-59
2021/07/14 06:53:54;;;;;;;18.15;16.45;;;;;;;24.14;66.37;100679.84;6106531;28;20244;-58
2021/07/14 06:57:14;;;;;;;14.05;12.98;;;;;;;24.41;65.51;100678.88;6118121;28;20258;-59
2021/07/14 07:00:36;;;;;;;17.20;15.68;;;;;;;24.30;65.78;100674.31;6101799;28;20239;-59
2021/07/14 07:03:57;;;;;;;16.38;14.98;;;;;;;24.47;65.38;100668.69;6111046;28;20243;-52
2021/07/14 07:07:19;;;;;;;14.38;13.05;;;;;;;24.42;65.33;100664.63;6086467;28;20232;-54
2021/07/14 07:10:40;;;;;;;18.73;17.23;;;;;;;24.51;65.78;100667.53;6107954;28;20231;-52
2021/07/14 07:14:02;;;;;;;14.93;13.68;;;;;;;24.56;65.09;100681.38;6102639;28;20259;-50
2021/07/14 07:17:23;;;;;;;20.83;18.90;;;;;;;24.83;64.98;100683.03;6110702;28;20232;-53
2021/07/14 07:20:43;;;;;;;19.02;17.52;;;;;;;24.69;65.49;100672.53;6095776;28;20236;-49
2021/07/14 07:24:06;;;;;;;17.20;15.57;;;;;;;24.91;64.66;100678.03;6114212;28;20240;-52
2021/07/14 07:27:32;;;;;;;14.27;13.15;;;;;;;25.04;64.36;100670.00;6105466;28;20228;-54
2021/07/14 07:30:53;;;;;;;19.20;17.55;;;;;;;24.92;65.14;100671.72;6100279;28;20236;-55
2021/07/14 07:34:15;;;;;;;15.30;14.15;;;;;;;24.74;65.72;100673.06;6108684;28;20244;-52
2021/07/14 07:37:36;;;;;;;19.45;17.58;;;;;;;24.58;66.52;100667.94;6108506;28;20235;-53
2021/07/14 07:40:58;;;;;;;18.58;17.02;;;;;;;24.94;64.85;100669.81;6108789;28;20240;-53
2021/07/14 07:44:19;;;;;;;13.40;12.30;;;;;;;25.09;64.25;100662.53;6103386;28;20228;-53
2021/07/14 07:47:40;;;;;;;15.93;14.70;;;;;;;25.22;63.53;100664.28;6112627;28;20232;-50
2021/07/14 07:51:01;;;;;;;20.33;18.80;;;;;;;25.45;62.84;100665.28;6106725;28;20244;-53
2021/07/14 07:54:22;;;;;;;18.50;17.02;;;;;;;25.21;64.27;100668.78;6115560;28;20255;-49
2021/07/14 07:57:45;;;;;;;13.27;12.27;;;;;;;25.69;61.90;100675.97;6112710;28;20229;-54
2021/07/14 08:01:06;;;;;;;19.10;17.60;;;;;;;25.80;61.85;100673.31;6107388;28;20231;-54
2021/07/14 08:04:27;;;;;;;15.85;14.40;;;;;;;25.89;61.47;100663.78;6110279;28;20239;-59
2021/07/14 08:07:47;;;;;;;16.33;14.90;;;;;;;26.04;61.15;100665.31;6112846;28;20227;-61
2021/07/14 08:11:09;;;;;;;15.55;14.32;;;;;;;26.20;60.78;100664.13;6121103;28;20236;-60
2021/07/14 08:14:31;;;;;;;17.80;16.10;;;;;;;26.19;61.04;100657.09;6108537;28;20232;-58
2021/07/14 08:17:52;;;;;;;14.38;13.32;;;;;;;26.75;59.52;100658.97;6109575;28;20255;-60
2021/07/14 08:21:13;;;;;;;19.95;18.27;;;;;;;26.52;60.10;100666.94;6107745;28;20240;-59
2021/07/14 08:24:34;;;;;;;15.98;14.60;;;;;;;26.36;60.76;100671.81;6109693;28;20791;-60
2021/07/14 08:27:55;;;;;;;17.45;16.15;;;;;;;26.30;60.54;100676.63;6117041;28;20633;-60
2021/07/14 08:31:17;;;;;;;16.63;15.32;;;;;;;26.60;59.83;100685.06;6109853;28;20327;-60
2021/07/14 08:34:38;;;;;;;14.57;13.13;;;;;;;27.09;58.35;100684.69;6110575;28;20330;-60
2021/07/14 08:37:59;;;;;;;15.60;14.43;;;;;;;27.18;58.41;100680.44;6111880;28;20279;-59
2021/07/14 08:41:21;;;;;;;16.60;15.18;;;;;;;26.90;59.48;100685.31;6111407;28;20227;-61
2021/07/14 08:44:42;;;;;;;15.23;14.10;;;;;;;27.37;57.56;100681.63;6104907;28;20235;-59
2021/07/14 08:48:08;;;;;;;13.93;12.85;;;;;;;27.33;58.55;100680.16;6111794;28;20950;-60
2021/07/14 08:51:29;;;;;;;16.25;15.05;;;;;;;27.06;59.05;100678.72;6105752;28;20798;-60
2021/07/14 08:54:51;;;;;;;14.93;13.65;;;;;;;27.96;56.28;100677.66;6115748;28;20239;-61
2021/07/14 08:58:13;;;;;;;14.68;13.20;;;;;;;28.56;54.88;100669.88;6115584;28;20526;-60
2021/07/14 09:01:34;;;;;;;12.90;11.68;;;;;;;28.85;53.38;100670.81;6114636;28;20228;-59
2021/07/14 09:04:56;;;;;;;15.45;14.10;;;;;;;28.46;55.49;100681.34;6110619;28;20504;-59
2021/07/14 09:08:18;;;;;;;15.90;13.90;;;;;;;28.39;55.71;100677.50;6109510;28;20232;-60
2021/07/14 09:11:50;;;;;;;14.35;13.13;;;;;;;27.88;57.72;100675.63;6098290;28;20236;-60
2021/07/14 09:15:13;;;;;;;12.85;11.77;;;;;;;27.78;57.43;100674.66;6100705;28;20239;-58
2021/07/14 09:18:34;;;;;;;11.18;10.27;;;;;;;27.83;56.66;100688.50;6110962;28;20569;-61
2021/07/14 09:21:58;;;;;;;13.68;12.57;;;;;;;27.97;57.23;100685.53;6114332;28;20255;-59
2021/07/14 09:25:20;;;;;;;14.48;13.30;;;;;;;27.91;57.46;100688.72;6104750;28;20240;-59
2021/07/14 09:28:41;;;;;;;11.68;10.55;;;;;;;28.51;55.34;100691.69;6106244;28;20228;-58
2021/07/14 09:32:09;;;;;;;13.50;12.38;;;;;;;28.68;55.09;100684.84;6103173;28;20232;-60
2021/07/14 09:35:33;;;;;;;11.77;10.70;;;;;;;28.82;54.63;100687.16;6109485;28;21109;-60
2021/07/14 09:39:04;;;;;;;11.55;10.55;;;;;;;29.57;52.74;100676.91;6107485;28;20566;-60
2021/07/14 09:42:29;;;;;;;12.00;11.00;;;;;;;29.08;53.86;100675.09;6110622;28;20235;-60
2021/07/14 09:45:52;;;;;;;12.52;11.13;;;;;;;28.72;53.59;100659.47;6108455;28;20244;-62
2021/07/14 09:49:14;;;;;;;14.52;13.27;;;;;;;28.63;55.32;100660.28;6111267;28;20613;-64
2021/07/14 09:52:37;;;;;;;13.70;12.70;;;;;;;28.37;55.51;100660.72;6108488;28;20236;-62
2021/07/14 09:56:10;;;;;;;12.98;11.73;;;;;;;28.68;55.44;100655.38;6109349;28;20239;-63
2021/07/14 09:59:32;;;;;;;10.02;9.23;;;;;;;28.67;54.91;100656.34;6108526;28;20254;-62
2021/07/14 10:02:56;;;;;;;11.88;10.88;;;;;;;28.51;55.51;100664.88;6108192;28;20247;-63
2021/07/14 10:06:18;;;;;;;12.27;11.32;;;;;;;28.98;54.81;100665.19;6104340;28;20227;-62
2021/07/14 10:09:40;;;;;;;12.18;11.27;;;;;;;28.89;54.14;100659.81;6096775;28;20432;-64
2021/07/14 10:13:08;;;;;;;13.07;12.02;;;;;;;29.67;51.88;100676.06;6108499;28;20235;-62
2021/07/14 10:16:32;;;;;;;11.45;10.63;;;;;;;29.56;51.90;100668.97;6111728;28;20242;-62
2021/07/14 10:19:53;;;;;;;11.25;10.32;;;;;;;29.77;51.21;100666.19;6113795;28;20223;-61
2021/07/14 10:23:17;;;;;;;11.02;10.23;;;;;;;29.20;51.78;100669.53;6112909;28;20355;-63
2021/07/14 10:26:40;;;;;;;12.00;11.10;;;;;;;29.11;51.67;100673.00;6109521;28;20515;-62
2021/07/14 10:30:02;;;;;;;12.07;11.13;;;;;;;28.71;52.59;100673.00;6116785;28;20235;-62
2021/07/14 10:33:25;;;;;;;13.05;11.80;;;;;;;29.34;51.19;100675.47;6107386;28;20241;-62
2021/07/14 10:36:51;;;;;;;12.80;11.85;;;;;;;29.37;51.25;100680.53;6100715;28;20236;-63
2021/07/14 10:40:13;;;;;;;12.43;11.23;;;;;;;29.96;49.85;100674.22;6106598;28;20259;-64
2021/07/14 10:43:35;;;;;;;10.73;9.93;;;;;;;29.82;50.52;100669.31;6106087;28;20240;-62
2021/07/14 10:46:57;;;;;;;11.55;10.68;;;;;;;30.86;47.50;100652.31;6102657;28;20327;-62
2021/07/14 10:50:20;;;;;;;11.15;10.25;;;;;;;30.89;46.70;100655.59;6100348;28;20232;-62
2021/07/14 10:53:44;;;;;;;11.05;10.15;;;;;;;31.08;47.30;100657.31;6098400;28;20232;-62
2021/07/14 10:57:06;;;;;;;12.80;11.77;;;;;;;31.18;46.68;100650.03;6105318;28;25065;-61
2021/07/14 11:00:27;;;;;;;10.65;9.93;;;;;;;31.24;46.15;100655.81;6107222;28;20240;-62
2021/07/14 11:03:50;;;;;;;12.65;11.60;;;;;;;30.91;46.75;100642.00;6104101;28;20599;-61
2021/07/14 11:07:11;;;;;;;12.02;10.93;;;;;;;31.42;46.12;100648.56;6107688;28;20224;-62
2021/07/14 11:10:34;;;;;;;11.20;10.23;;;;;;;30.89;46.72;100652.03;6114030;28;20240;-61
2021/07/14 11:14:05;;;;;;;12.57;11.60;;;;;;;30.22;48.67;100655.69;6107052;28;21587;-60
2021/07/14 11:17:29;;;;;;;11.68;10.80;;;;;;;30.73;47.92;100645.47;6106503;28;20239;-62
2021/07/14 11:20:51;;;;;;;14.45;13.18;;;;;;;30.60;47.89;100648.47;6098881;28;20231;-63
2021/07/14 11:24:12;;;;;;;12.88;11.88;;;;;;;31.28;46.54;100646.44;6114272;28;20243;-61
2021/07/14 11:27:55;;;;;;;12.63;11.65;;;;;;;31.07;47.24;100628.72;6107175;28;20300;-62
2021/07/14 11:31:16;;;;;;;10.80;9.90;;;;;;;30.98;46.98;100626.94;6108479;28;20231;-57
2021/07/14 11:34:38;;;;;;;10.90;10.10;;;;;;;30.47;47.27;100633.69;6108547;28;20691;-59
2021/07/14 11:38:02;;;;;;;11.18;10.30;;;;;;;31.51;45.24;100620.78;6108512;28;20232;-59
2021/07/14 11:41:26;;;;;;;11.45;10.55;;;;;;;31.51;45.85;100614.56;6114103;28;20961;-58
2021/07/14 11:44:52;;;;;;;11.07;10.10;;;;;;;32.55;43.72;100613.72;6097553;28;20231;-58
2021/07/14 11:48:15;;;;;;;12.50;11.25;;;;;;;32.61;43.25;100609.56;6109577;28;20224;-59
2021/07/14 11:51:38;;;;;;;11.95;10.95;;;;;;;32.43;43.36;100609.63;6109890;28;20232;-61
2021/07/14 11:55:32;;;;;;;10.57;9.80;;;;;;;32.40;44.22;100609.94;6111917;28;20232;-58
2021/07/14 11:59:05;;;;;;;10.38;9.43;;;;;;;31.93;44.79;100609.34;6113462;28;20227;-60
2021/07/14 12:02:26;;;;;;;10.40;9.55;;;;;;;30.60;47.78;100604.66;6114062;28;20278;-61
2021/07/14 12:05:48;;;;;;;11.60;10.80;;;;;;;30.15;49.17;100610.75;6120744;28;20235;-63
2021/07/14 12:09:34;;;;;;;10.88;10.13;;;;;;;30.59;48.48;100597.56;6106803;28;20298;-56
2021/07/14 12:12:55;;;;;;;11.98;10.85;;;;;;;31.35;46.43;100601.78;6107492;28;20606;-52
2021/07/14 12:16:26;;;;;;;13.93;11.25;;;;;;;31.64;45.61;100620.41;6106895;28;20240;-54
2021/07/14 12:19:48;;;;;;;9.70;8.82;;;;;;;30.88;46.62;100623.44;6111582;28;20318;-56
2021/07/14 12:23:14;;;;;;;10.73;9.73;;;;;;;30.54;47.89;100626.75;6109051;28;20232;-52
2021/07/14 12:26:35;;;;;;;11.38;10.25;;;;;;;30.31;48.19;100629.81;6110070;28;20236;-55
2021/07/14 12:29:58;;;;;;;13.32;10.45;;;;;;;30.24;48.04;100634.03;6102655;28;20315;-63
2021/07/14 12:33:20;;;;;;;11.98;10.55;;;;;;;30.56;47.43;100632.81;6107981;28;20769;-63
2021/07/14 12:36:44;;;;;;;15.52;11.65;;;;;;;30.18;47.01;100634.63;6104833;28;20232;-63
2021/07/14 12:40:06;;;;;;;10.73;9.88;;;;;;;29.55;49.15;100630.59;6107161;28;21089;-66
2021/07/14 12:43:28;;;;;;;11.15;10.25;;;;;;;29.69;48.54;100636.53;6107791;28;20739;-63
2021/07/14 12:46:50;;;;;;;10.43;9.43;;;;;;;29.62;49.28;100631.72;6104030;28;20244;-62
2021/07/14 12:50:20;;;;;;;10.73;9.82;;;;;;;29.53;50.22;100624.53;6109517;28;20871;-61
2021/07/14 12:53:41;;;;;;;10.68;9.82;;;;;;;29.93;49.13;100628.03;6100837;28;20227;-60
2021/07/14 12:57:07;;;;;;;12.57;10.80;;;;;;;29.65;49.05;100626.06;6105974;28;20243;-63
2021/07/14 13:00:28;;;;;;;11.52;10.23;;;;;;;29.61;49.81;100627.34;6100732;28;20303;-62
2021/07/14 13:03:49;;;;;;;11.98;11.07;;;;;;;29.04;51.63;100640.53;6110844;28;20281;-63
2021/07/14 13:07:12;;;;;;;13.90;12.73;;;;;;;28.63;53.50;100628.13;6109586;28;20232;-61
2021/07/14 13:10:34;;;;;;;14.07;12.98;;;;;;;28.44;54.20;100624.38;6105293;28;20636;-61
2021/07/14 13:13:54;;;;;;;13.20;12.13;;;;;;;28.73;53.34;100623.69;6102060;28;20236;-61
2021/07/14 13:17:25;;;;;;;13.07;11.88;;;;;;;29.96;50.43;100615.16;6112399;28;20364;-61
2021/07/14 13:20:50;;;;;;;14.90;13.60;;;;;;;30.03;50.15;100608.25;6109049;28;20272;-60
2021/07/14 13:24:13;;;;;;;13.80;12.48;;;;;;;30.58;48.82;100595.91;6111546;28;20672;-62
2021/07/14 13:27:38;;;;;;;14.63;12.88;;;;;;;30.95;48.48;100597.69;6103620;28;20586;-63
2021/07/14 13:31:00;;;;;;;14.18;12.98;;;;;;;33.13;42.83;100590.50;6105019;28;20231;-62
2021/07/14 13:34:21;;;;;;;13.77;12.68;;;;;;;35.29;38.13;100588.75;6108065;28;20223;-63
2021/07/14 13:37:42;;;;;;;13.15;12.00;;;;;;;35.48;37.32;100596.38;6108785;28;20232;-63
2021/07/14 13:41:20;;;;;;;15.45;13.02;;;;;;;35.20;38.01;100608.78;6118268;28;20244;-60
2021/07/14 13:44:42;;;;;;;13.98;12.60;;;;;;;34.60;38.10;100621.91;6106389;28;20318;-63
2021/07/14 13:48:04;;;;;;;13.15;12.05;;;;;;;34.48;39.47;100623.31;6105520;28;20813;-63
2021/07/14 13:51:33;;;;;;;12.98;11.82;;;;;;;32.65;43.04;100616.31;6111737;28;20228;-63
2021/07/14 13:55:10;;;;;;;15.00;13.65;;;;;;;31.40;45.77;100629.88;6109040;28;20228;-63
2021/07/14 13:58:32;;;;;;;18.40;13.15;;;;;;;31.63;45.19;100640.22;6102296;28;20335;-63
2021/07/14 14:01:58;;;;;;;13.13;12.18;;;;;;;30.15;48.91;100633.06;6108420;28;20222;-62
2021/07/14 14:05:22;;;;;;;15.27;13.85;;;;;;;30.01;49.63;100642.44;6107613;28;20512;-62
2021/07/14 14:08:51;;;;;;;12.98;11.88;;;;;;;30.01;49.83;100645.13;6107203;28;20240;-60
2021/07/14 14:12:14;;;;;;;14.68;13.25;;;;;;;29.12;51.49;100642.56;6097762;28;20594;-63
2021/07/14 14:15:37;;;;;;;15.20;13.85;;;;;;;31.62;45.90;100643.06;6108648;28;20232;-63
2021/07/14 14:18:58;;;;;;;16.40;14.80;;;;;;;31.82;46.16;100654.50;6123209;28;20545;-63
2021/07/14 14:22:24;;;;;;;13.90;12.65;;;;;;;31.48;46.51;100647.97;6110000;28;20594;-63
2021/07/14 14:25:50;;;;;;;13.13;12.13;;;;;;;29.75;49.77;100655.59;6107193;28;20236;-64
2021/07/14 14:29:11;;;;;;;15.07;12.30;;;;;;;29.73;50.83;100657.56;6115157;28;20622;-62
2021/07/14 14:32:33;;;;;;;12.70;11.60;;;;;;;28.79;51.79;100649.06;6105222;28;20259;-63
2021/07/14 14:35:55;;;;;;;12.68;11.57;;;;;;;29.24;50.62;100649.50;6098745;28;20231;-65
2021/07/14 14:39:17;;;;;;;12.20;11.30;;;;;;;29.97;48.96;100651.78;6088879;28;20262;-63
2021/07/14 14:42:38;;;;;;;13.20;12.02;;;;;;;29.24;50.84;100654.84;6104019;28;20557;-63
2021/07/14 14:45:59;;;;;;;15.10;13.82;;;;;;;30.20;48.63;100651.41;6110182;28;20319;-62
2021/07/14 14:49:21;;;;;;;15.60;14.32;;;;;;;30.37;47.34;100653.38;6099177;28;20240;-53
2021/07/14 14:52:42;;;;;;;15.57;14.38;;;;;;;30.15;47.33;100659.09;6105970;28;20228;-53
2021/07/14 14:56:04;;;;;;;14.50;13.40;;;;;;;30.77;45.56;100652.22;6106959;28;20238;-51
2021/07/14 14:59:26;;;;;;;16.60;15.13;;;;;;;30.71;45.83;100660.91;6097493;29;20224;-49
2021/07/14 15:02:48;;;;;;;15.63;14.52;;;;;;;30.48;46.67;100681.91;6119531;28;20327;-49
2021/07/14 15:06:10;;;;;;;15.35;14.25;;;;;;;29.87;47.74;100683.13;6105646;28;20549;-52
2021/07/14 15:09:31;;;;;;;15.00;13.80;;;;;;;29.49;48.03;100679.44;6106537;28;20553;-49
2021/07/14 15:12:52;;;;;;;14.80;13.70;;;;;;;29.00;49.47;100673.97;6095904;28;20544;-52
2021/07/14 15:16:14;;;;;;;14.93;13.52;;;;;;;28.39;50.52;100658.75;6117191;28;20243;-53
2021/07/14 15:19:36;;;;;;;13.65;12.65;;;;;;;29.99;46.96;100663.22;6117327;28;20318;-47
2021/07/14 15:23:02;;;;;;;14.32;13.13;;;;;;;29.81;47.45;100656.88;6113287;28;20530;-51
2021/07/14 15:30:03;;;;;;;13.50;12.32;;;;;;;30.14;46.14;100652.00;6093982;28;20318;-50
2021/07/14 15:33:24;;;;;;;14.48;13.30;;;;;;;30.91;44.90;100644.69;6102934;28;20232;-52